sensor_id;sensor_type;location;lat;lon;timestamp;temperature;humidity
10433;DHT22;5263;48.680;9.004;2023-09-19T00:00:22;15.20;99.90
10433;DHT22;5263;48.680;9.004;2023-09-19T00:02:57;15.20;99.90
10433;DHT22;5263;48.680;9.004;2023-09-19T00:05:28;15.10;99.90
10433;DHT22;5263;48.680;9.004;2023-09-19T00:07:56;15.10;99.90
10433;DHT22;5263;48.680;9.004;2023-09-19T00:10:25;15.10;99.90
10433;DHT22;5263;48.680;9.004;2023-09-19T00:12:55;15.00;99.90
10433;DHT22;5263;48.680;9.004;2023-09-19T00:15:30;15.10;99.90
10433;DHT22;5263;48.680;9.004;2023-09-19T00:17:56;15.10;99.90
10433;DHT22;5263;48.680;9.004;2023-09-19T00:20:22;15.20;99.90
10433;DHT22;5263;48.680;9.004;2023-09-19T00:22:49;15.10;99.90
10433;DHT22;5263;48.680;9.004;2023-09-19T00:25:19;15.20;99.90
10433;DHT22;5263;48.680;9.004;2023-09-19T00:27:45;15.10;99.90
10433;DHT22;5263;48.680;9.004;2023-09-19T00:30:13;15.10;99.90
10433;DHT22;5263;48.680;9.004;2023-09-19T00:32:49;15.10;99.90
10433;DHT22;5263;48.680;9.004;2023-09-19T00:35:17;15.00;99.90
10433;DHT22;5263;48.680;9.004;2023-09-19T00:37:43;15.00;99.90
10433;DHT22;5263;48.680;9.004;2023-09-19T00:40:09;15.00;99.90
10433;DHT22;5263;48.680;9.004;2023-09-19T00:42:39;15.00;99.90
10433;DHT22;5263;48.680;9.004;2023-09-19T00:45:07;15.20;99.90
10433;DHT22;5263;48.680;9.004;2023-09-19T00:47:35;15.10;99.90
10433;DHT22;5263;48.680;9.004;2023-09-19T00:50:01;15.10;99.90
10433;DHT22;5263;48.680;9.004;2023-09-19T00:52:28;15.10;99.90
10433;DHT22;5263;48.680;9.004;2023-09-19T00:54:54;15.10;99.90
10433;DHT22;5263;48.680;9.004;2023-09-19T00:57:20;15.20;99.90
10433;DHT22;5263;48.680;9.004;2023-09-19T00:59:49;15.30;99.90
10433;DHT22;5263;48.680;9.004;2023-09-19T01:02:16;15.20;99.90
10433;DHT22;5263;48.680;9.004;2023-09-19T01:04:42;15.20;99.90
10433;DHT22;5263;48.680;9.004;2023-09-19T01:07:08;15.30;99.90
10433;DHT22;5263;48.680;9.004;2023-09-19T01:09:35;15.20;99.90
10433;DHT22;5263;48.680;9.004;2023-09-19T01:12:02;15.30;99.90
10433;DHT22;5263;48.680;9.004;2023-09-19T01:14:50;15.30;99.90
10433;DHT22;5263;48.680;9.004;2023-09-19T01:17:45;15.30;99.90
10433;DHT22;5263;48.680;9.004;2023-09-19T01:20:24;15.20;99.90
10433;DHT22;5263;48.680;9.004;2023-09-19T01:23:16;15.20;99.90
10433;DHT22;5263;48.680;9.004;2023-09-19T01:26:05;15.30;99.90
10433;DHT22;5263;48.680;9.004;2023-09-19T01:31:24;15.20;99.90
10433;DHT22;5263;48.680;9.004;2023-09-19T01:34:08;15.20;99.90
10433;DHT22;5263;48.680;9.004;2023-09-19T01:36:38;15.30;99.90
10433;DHT22;5263;48.680;9.004;2023-09-19T01:39:06;15.30;99.90
10433;DHT22;5263;48.680;9.004;2023-09-19T01:41:52;15.30;99.90
10433;DHT22;5263;48.680;9.004;2023-09-19T01:44:44;15.30;99.90
10433;DHT22;5263;48.680;9.004;2023-09-19T01:47:32;15.20;99.90
10433;DHT22;5263;48.680;9.004;2023-09-19T01:50:21;15.30;99.90
10433;DHT22;5263;48.680;9.004;2023-09-19T01:53:07;15.20;99.90
10433;DHT22;5263;48.680;9.004;2023-09-19T01:55:43;15.10;99.90
10433;DHT22;5263;48.680;9.004;2023-09-19T01:58:37;15.20;99.90
10433;DHT22;5263;48.680;9.004;2023-09-19T02:01:04;15.10;99.90
10433;DHT22;5263;48.680;9.004;2023-09-19T02:03:32;15.00;99.90
10433;DHT22;5263;48.680;9.004;2023-09-19T02:05:58;14.90;99.90
10433;DHT22;5263;48.680;9.004;2023-09-19T02:08:24;15.00;99.90
10433;DHT22;5263;48.680;9.004;2023-09-19T02:10:50;14.90;99.90
10433;DHT22;5263;48.680;9.004;2023-09-19T02:13:19;14.90;99.90
10433;DHT22;5263;48.680;9.004;2023-09-19T02:15:46;14.80;99.90
10433;DHT22;5263;48.680;9.004;2023-09-19T02:18:15;14.80;99.90
10433;DHT22;5263;48.680;9.004;2023-09-19T02:20:41;14.90;99.90
10433;DHT22;5263;48.680;9.004;2023-09-19T02:23:07;14.80;99.90
10433;DHT22;5263;48.680;9.004;2023-09-19T02:25:33;15.00;99.90
10433;DHT22;5263;48.680;9.004;2023-09-19T02:28:00;14.80;99.90
10433;DHT22;5263;48.680;9.004;2023-09-19T02:30:29;14.90;99.90
10433;DHT22;5263;48.680;9.004;2023-09-19T02:32:54;14.80;99.90
10433;DHT22;5263;48.680;9.004;2023-09-19T02:35:20;14.80;99.90
10433;DHT22;5263;48.680;9.004;2023-09-19T02:37:46;14.80;99.90
10433;DHT22;5263;48.680;9.004;2023-09-19T02:40:12;14.80;99.90
10433;DHT22;5263;48.680;9.004;2023-09-19T02:42:54;14.70;99.90
10433;DHT22;5263;48.680;9.004;2023-09-19T02:45:20;14.70;99.90
10433;DHT22;5263;48.680;9.004;2023-09-19T02:47:47;14.80;99.90
10433;DHT22;5263;48.680;9.004;2023-09-19T02:50:13;14.70;99.90
10433;DHT22;5263;48.680;9.004;2023-09-19T02:52:44;14.80;99.90
10433;DHT22;5263;48.680;9.004;2023-09-19T02:55:12;14.80;99.90
10433;DHT22;5263;48.680;9.004;2023-09-19T02:57:39;14.90;99.90
10433;DHT22;5263;48.680;9.004;2023-09-19T03:00:09;14.90;99.90
10433;DHT22;5263;48.680;9.004;2023-09-19T03:02:36;14.90;99.90
10433;DHT22;5263;48.680;9.004;2023-09-19T03:05:02;15.00;99.90
10433;DHT22;5263;48.680;9.004;2023-09-19T03:07:28;15.00;99.90
10433;DHT22;5263;48.680;9.004;2023-09-19T03:09:54;15.00;99.90
10433;DHT22;5263;48.680;9.004;2023-09-19T03:12:20;15.10;99.90
10433;DHT22;5263;48.680;9.004;2023-09-19T03:14:46;15.20;99.90
10433;DHT22;5263;48.680;9.004;2023-09-19T03:17:11;15.20;99.90
10433;DHT22;5263;48.680;9.004;2023-09-19T03:19:39;15.10;99.90
10433;DHT22;5263;48.680;9.004;2023-09-19T03:22:05;15.10;99.90
10433;DHT22;5263;48.680;9.004;2023-09-19T03:24:31;15.20;99.90
10433;DHT22;5263;48.680;9.004;2023-09-19T03:26:57;15.10;99.90
10433;DHT22;5263;48.680;9.004;2023-09-19T03:29:23;15.30;99.90
10433;DHT22;5263;48.680;9.004;2023-09-19T03:31:48;15.20;99.90
10433;DHT22;5263;48.680;9.004;2023-09-19T03:34:14;15.20;99.90
10433;DHT22;5263;48.680;9.004;2023-09-19T03:36:39;15.30;99.90
10433;DHT22;5263;48.680;9.004;2023-09-19T03:39:06;15.20;99.90
10433;DHT22;5263;48.680;9.004;2023-09-19T03:41:32;15.20;99.90
10433;DHT22;5263;48.680;9.004;2023-09-19T03:43:58;15.20;99.90
10433;DHT22;5263;48.680;9.004;2023-09-19T03:46:24;15.10;99.90
10433;DHT22;5263;48.680;9.004;2023-09-19T03:48:50;15.20;99.90
10433;DHT22;5263;48.680;9.004;2023-09-19T03:51:16;15.00;99.90
10433;DHT22;5263;48.680;9.004;2023-09-19T03:53:41;15.00;99.90
10433;DHT22;5263;48.680;9.004;2023-09-19T03:56:07;14.90;99.90
10433;DHT22;5263;48.680;9.004;2023-09-19T03:58:33;14.90;99.90
10433;DHT22;5263;48.680;9.004;2023-09-19T04:01:03;14.80;99.90
10433;DHT22;5263;48.680;9.004;2023-09-19T04:03:29;14.90;99.90
10433;DHT22;5263;48.680;9.004;2023-09-19T04:06:01;14.90;99.90
10433;DHT22;5263;48.680;9.004;2023-09-19T04:08:27;14.80;99.90
10433;DHT22;5263;48.680;9.004;2023-09-19T04:10:52;14.90;99.90
10433;DHT22;5263;48.680;9.004;2023-09-19T04:13:18;14.90;99.90
10433;DHT22;5263;48.680;9.004;2023-09-19T04:15:44;14.90;99.90
10433;DHT22;5263;48.680;9.004;2023-09-19T04:18:11;14.90;99.90
10433;DHT22;5263;48.680;9.004;2023-09-19T04:20:37;15.10;99.90
10433;DHT22;5263;48.680;9.004;2023-09-19T04:23:03;15.00;99.90
10433;DHT22;5263;48.680;9.004;2023-09-19T04:25:30;15.00;99.90
10433;DHT22;5263;48.680;9.004;2023-09-19T04:27:57;15.00;99.90
10433;DHT22;5263;48.680;9.004;2023-09-19T04:30:23;15.00;99.90
10433;DHT22;5263;48.680;9.004;2023-09-19T04:32:48;15.00;99.90
10433;DHT22;5263;48.680;9.004;2023-09-19T04:35:16;15.00;99.90
10433;DHT22;5263;48.680;9.004;2023-09-19T04:37:42;15.00;99.90
10433;DHT22;5263;48.680;9.004;2023-09-19T04:40:11;15.00;99.90
10433;DHT22;5263;48.680;9.004;2023-09-19T04:42:42;15.00;99.90
10433;DHT22;5263;48.680;9.004;2023-09-19T04:45:08;15.10;99.90
10433;DHT22;5263;48.680;9.004;2023-09-19T04:47:36;15.10;99.90
10433;DHT22;5263;48.680;9.004;2023-09-19T04:50:05;15.00;99.90
10433;DHT22;5263;48.680;9.004;2023-09-19T04:52:31;15.00;99.90
10433;DHT22;5263;48.680;9.004;2023-09-19T04:54:57;15.00;99.90
10433;DHT22;5263;48.680;9.004;2023-09-19T04:57:23;15.00;99.90
10433;DHT22;5263;48.680;9.004;2023-09-19T04:59:49;14.90;99.90
10433;DHT22;5263;48.680;9.004;2023-09-19T05:02:15;14.90;99.90
10433;DHT22;5263;48.680;9.004;2023-09-19T05:04:41;14.80;99.90
10433;DHT22;5263;48.680;9.004;2023-09-19T05:07:06;14.70;99.90
10433;DHT22;5263;48.680;9.004;2023-09-19T05:09:32;14.80;99.90
10433;DHT22;5263;48.680;9.004;2023-09-19T05:11:59;14.80;99.90
10433;DHT22;5263;48.680;9.004;2023-09-19T05:14:25;14.60;99.90
10433;DHT22;5263;48.680;9.004;2023-09-19T05:16:50;14.70;99.90
10433;DHT22;5263;48.680;9.004;2023-09-19T05:19:16;14.60;99.90
10433;DHT22;5263;48.680;9.004;2023-09-19T05:21:42;14.60;99.90
10433;DHT22;5263;48.680;9.004;2023-09-19T05:24:07;14.60;99.90
10433;DHT22;5263;48.680;9.004;2023-09-19T05:26:33;14.60;99.90
10433;DHT22;5263;48.680;9.004;2023-09-19T05:28:59;14.50;99.90
10433;DHT22;5263;48.680;9.004;2023-09-19T05:31:24;14.50;99.90
10433;DHT22;5263;48.680;9.004;2023-09-19T05:33:51;14.50;99.90
10433;DHT22;5263;48.680;9.004;2023-09-19T05:36:16;14.70;99.90
10433;DHT22;5263;48.680;9.004;2023-09-19T05:38:42;14.60;99.90
10433;DHT22;5263;48.680;9.004;2023-09-19T05:41:09;14.60;99.90
10433;DHT22;5263;48.680;9.004;2023-09-19T05:43:39;14.60;99.90
10433;DHT22;5263;48.680;9.004;2023-09-19T05:46:06;14.60;99.90
10433;DHT22;5263;48.680;9.004;2023-09-19T05:48:33;14.60;99.90
10433;DHT22;5263;48.680;9.004;2023-09-19T05:50:59;14.70;99.90
10433;DHT22;5263;48.680;9.004;2023-09-19T05:53:26;14.70;99.90
10433;DHT22;5263;48.680;9.004;2023-09-19T05:55:51;14.70;99.90
10433;DHT22;5263;48.680;9.004;2023-09-19T05:58:18;14.70;99.90
10433;DHT22;5263;48.680;9.004;2023-09-19T06:00:45;14.80;99.90
10433;DHT22;5263;48.680;9.004;2023-09-19T06:03:12;14.90;99.90
10433;DHT22;5263;48.680;9.004;2023-09-19T06:05:39;15.00;99.90
10433;DHT22;5263;48.680;9.004;2023-09-19T06:08:07;15.00;99.90
10433;DHT22;5263;48.680;9.004;2023-09-19T06:10:33;14.90;99.90
10433;DHT22;5263;48.680;9.004;2023-09-19T06:13:02;14.70;99.90
10433;DHT22;5263;48.680;9.004;2023-09-19T06:15:28;14.70;99.90
10433;DHT22;5263;48.680;9.004;2023-09-19T06:17:55;14.70;99.90
10433;DHT22;5263;48.680;9.004;2023-09-19T06:20:22;14.60;99.90
10433;DHT22;5263;48.680;9.004;2023-09-19T06:22:49;14.60;99.90
10433;DHT22;5263;48.680;9.004;2023-09-19T06:25:16;14.60;99.90
10433;DHT22;5263;48.680;9.004;2023-09-19T06:27:51;14.50;99.90
10433;DHT22;5263;48.680;9.004;2023-09-19T06:30:19;14.50;99.90
10433;DHT22;5263;48.680;9.004;2023-09-19T06:32:45;14.50;99.90
10433;DHT22;5263;48.680;9.004;2023-09-19T06:35:12;14.70;99.90
10433;DHT22;5263;48.680;9.004;2023-09-19T06:37:38;14.90;99.90
10433;DHT22;5263;48.680;9.004;2023-09-19T06:40:11;14.90;99.90
10433;DHT22;5263;48.680;9.004;2023-09-19T06:42:43;14.90;99.90
10433;DHT22;5263;48.680;9.004;2023-09-19T06:45:13;15.00;99.90
10433;DHT22;5263;48.680;9.004;2023-09-19T06:47:43;15.00;99.90
10433;DHT22;5263;48.680;9.004;2023-09-19T06:50:09;14.90;99.90
10433;DHT22;5263;48.680;9.004;2023-09-19T06:52:40;14.70;99.90
10433;DHT22;5263;48.680;9.004;2023-09-19T06:55:06;14.80;99.90
10433;DHT22;5263;48.680;9.004;2023-09-19T06:57:32;14.90;99.90
10433;DHT22;5263;48.680;9.004;2023-09-19T06:59:57;15.00;99.90
10433;DHT22;5263;48.680;9.004;2023-09-19T07:02:23;14.80;99.90
10433;DHT22;5263;48.680;9.004;2023-09-19T07:04:48;14.90;99.90
10433;DHT22;5263;48.680;9.004;2023-09-19T07:07:15;14.80;99.90
10433;DHT22;5263;48.680;9.004;2023-09-19T07:09:41;14.90;99.90
10433;DHT22;5263;48.680;9.004;2023-09-19T07:12:07;15.10;99.90
10433;DHT22;5263;48.680;9.004;2023-09-19T07:14:33;15.20;99.90
10433;DHT22;5263;48.680;9.004;2023-09-19T07:16:59;15.30;99.90
10433;DHT22;5263;48.680;9.004;2023-09-19T07:19:26;15.50;99.90
10433;DHT22;5263;48.680;9.004;2023-09-19T07:21:56;15.50;99.90
10433;DHT22;5263;48.680;9.004;2023-09-19T07:24:24;15.60;99.90
10433;DHT22;5263;48.680;9.004;2023-09-19T07:26:52;15.70;99.90
10433;DHT22;5263;48.680;9.004;2023-09-19T07:29:18;15.70;99.90
10433;DHT22;5263;48.680;9.004;2023-09-19T07:31:43;15.90;99.90
10433;DHT22;5263;48.680;9.004;2023-09-19T07:34:09;15.80;99.90
10433;DHT22;5263;48.680;9.004;2023-09-19T07:36:35;16.00;99.90
10433;DHT22;5263;48.680;9.004;2023-09-19T07:39:02;15.90;99.90
10433;DHT22;5263;48.680;9.004;2023-09-19T07:41:32;15.90;99.90
10433;DHT22;5263;48.680;9.004;2023-09-19T07:43:58;15.80;99.90
10433;DHT22;5263;48.680;9.004;2023-09-19T07:46:23;15.80;99.90
10433;DHT22;5263;48.680;9.004;2023-09-19T07:48:50;15.80;99.90
10433;DHT22;5263;48.680;9.004;2023-09-19T07:51:15;15.80;99.90
10433;DHT22;5263;48.680;9.004;2023-09-19T07:53:41;15.90;99.90
10433;DHT22;5263;48.680;9.004;2023-09-19T07:56:08;15.90;99.90
10433;DHT22;5263;48.680;9.004;2023-09-19T07:58:34;16.00;99.90
10433;DHT22;5263;48.680;9.004;2023-09-19T08:01:05;16.10;99.90
10433;DHT22;5263;48.680;9.004;2023-09-19T08:03:32;16.40;99.90
10433;DHT22;5263;48.680;9.004;2023-09-19T08:05:57;16.40;99.90
10433;DHT22;5263;48.680;9.004;2023-09-19T08:08:23;16.40;99.90
10433;DHT22;5263;48.680;9.004;2023-09-19T08:10:56;16.40;99.90
10433;DHT22;5263;48.680;9.004;2023-09-19T08:13:24;16.50;99.90
10433;DHT22;5263;48.680;9.004;2023-09-19T08:15:51;16.50;99.90
10433;DHT22;5263;48.680;9.004;2023-09-19T08:18:18;16.60;99.90
10433;DHT22;5263;48.680;9.004;2023-09-19T08:20:49;16.70;99.90
10433;DHT22;5263;48.680;9.004;2023-09-19T08:23:14;16.90;99.90
10433;DHT22;5263;48.680;9.004;2023-09-19T08:25:42;16.90;99.90
10433;DHT22;5263;48.680;9.004;2023-09-19T08:28:08;16.90;99.90
10433;DHT22;5263;48.680;9.004;2023-09-19T08:30:34;16.90;99.90
10433;DHT22;5263;48.680;9.004;2023-09-19T08:33:00;16.90;99.90
10433;DHT22;5263;48.680;9.004;2023-09-19T08:35:27;17.10;99.90
10433;DHT22;5263;48.680;9.004;2023-09-19T08:37:52;17.30;99.90
10433;DHT22;5263;48.680;9.004;2023-09-19T08:40:18;17.20;99.90
10433;DHT22;5263;48.680;9.004;2023-09-19T08:42:55;17.40;99.90
10433;DHT22;5263;48.680;9.004;2023-09-19T08:45:22;17.40;99.90
10433;DHT22;5263;48.680;9.004;2023-09-19T08:50:27;17.70;99.90
10433;DHT22;5263;48.680;9.004;2023-09-19T08:52:55;17.70;99.90
10433;DHT22;5263;48.680;9.004;2023-09-19T08:55:27;17.90;99.90
10433;DHT22;5263;48.680;9.004;2023-09-19T08:58:00;18.20;99.90
10433;DHT22;5263;48.680;9.004;2023-09-19T09:00:27;18.40;99.90
10433;DHT22;5263;48.680;9.004;2023-09-19T09:02:55;18.40;99.90
10433;DHT22;5263;48.680;9.004;2023-09-19T09:05:22;18.50;99.90
10433;DHT22;5263;48.680;9.004;2023-09-19T09:07:49;18.50;99.90
10433;DHT22;5263;48.680;9.004;2023-09-19T09:10:22;18.40;99.90
10433;DHT22;5263;48.680;9.004;2023-09-19T09:12:58;18.30;99.90
10433;DHT22;5263;48.680;9.004;2023-09-19T09:15:29;18.40;99.90
10433;DHT22;5263;48.680;9.004;2023-09-19T09:17:57;18.40;99.90
10433;DHT22;5263;48.680;9.004;2023-09-19T09:20:23;18.10;99.90
10433;DHT22;5263;48.680;9.004;2023-09-19T09:22:56;18.10;99.90
10433;DHT22;5263;48.680;9.004;2023-09-19T09:25:49;18.40;99.90
10433;DHT22;5263;48.680;9.004;2023-09-19T09:28:29;18.50;99.90
10433;DHT22;5263;48.680;9.004;2023-09-19T09:30:59;18.40;99.90
10433;DHT22;5263;48.680;9.004;2023-09-19T09:33:26;18.30;99.90
10433;DHT22;5263;48.680;9.004;2023-09-19T09:38:22;18.40;99.90
10433;DHT22;5263;48.680;9.004;2023-09-19T09:40:53;18.50;99.90
10433;DHT22;5263;48.680;9.004;2023-09-19T09:43:38;18.70;99.90
10433;DHT22;5263;48.680;9.004;2023-09-19T09:46:16;19.20;99.90
10433;DHT22;5263;48.680;9.004;2023-09-19T09:48:55;20.60;99.90
10433;DHT22;5263;48.680;9.004;2023-09-19T09:51:44;21.80;99.90
10433;DHT22;5263;48.680;9.004;2023-09-19T09:54:23;22.60;99.90
10433;DHT22;5263;48.680;9.004;2023-09-19T09:56:57;23.10;99.90
10433;DHT22;5263;48.680;9.004;2023-09-19T09:59:55;23.20;99.90
10433;DHT22;5263;48.680;9.004;2023-09-19T10:02:29;24.00;99.90
10433;DHT22;5263;48.680;9.004;2023-09-19T10:04:55;23.40;99.90
10433;DHT22;5263;48.680;9.004;2023-09-19T10:07:26;22.40;99.90
10433;DHT22;5263;48.680;9.004;2023-09-19T10:09:59;22.40;99.90
10433;DHT22;5263;48.680;9.004;2023-09-19T10:12:38;21.50;99.90
10433;DHT22;5263;48.680;9.004;2023-09-19T10:15:07;21.50;99.90
10433;DHT22;5263;48.680;9.004;2023-09-19T10:17:36;22.00;99.90
10433;DHT22;5263;48.680;9.004;2023-09-19T10:20:02;23.70;99.90
10433;DHT22;5263;48.680;9.004;2023-09-19T10:22:39;23.90;99.90
10433;DHT22;5263;48.680;9.004;2023-09-19T10:25:08;24.30;99.90
10433;DHT22;5263;48.680;9.004;2023-09-19T10:27:35;24.50;99.90
10433;DHT22;5263;48.680;9.004;2023-09-19T10:30:05;25.20;99.90
10433;DHT22;5263;48.680;9.004;2023-09-19T10:32:35;25.70;98.30
10433;DHT22;5263;48.680;9.004;2023-09-19T10:35:01;25.00;99.90
10433;DHT22;5263;48.680;9.004;2023-09-19T10:37:31;25.50;98.20
10433;DHT22;5263;48.680;9.004;2023-09-19T10:39:58;25.50;98.10
10433;DHT22;5263;48.680;9.004;2023-09-19T10:42:25;25.60;98.30
10433;DHT22;5263;48.680;9.004;2023-09-19T10:44:54;26.10;97.00
10433;DHT22;5263;48.680;9.004;2023-09-19T10:47:20;26.80;94.70
10433;DHT22;5263;48.680;9.004;2023-09-19T10:49:49;26.80;94.50
10433;DHT22;5263;48.680;9.004;2023-09-19T10:52:19;26.90;93.70
10433;DHT22;5263;48.680;9.004;2023-09-19T10:54:47;25.80;95.60
10433;DHT22;5263;48.680;9.004;2023-09-19T10:57:26;26.40;95.70
10433;DHT22;5263;48.680;9.004;2023-09-19T11:00:04;28.20;93.50
10433;DHT22;5263;48.680;9.004;2023-09-19T11:06:03;25.50;92.40
10433;DHT22;5263;48.680;9.004;2023-09-19T11:08:58;24.80;94.50
10433;DHT22;5263;48.680;9.004;2023-09-19T11:30:43;22.50;98.90
10433;DHT22;5263;48.680;9.004;2023-09-19T11:33:22;23.50;97.10
10433;DHT22;5263;48.680;9.004;2023-09-19T11:46:17;28.50;91.00
10433;DHT22;5263;48.680;9.004;2023-09-19T11:48:47;29.80;88.60
10433;DHT22;5263;48.680;9.004;2023-09-19T11:51:17;29.10;84.20
10433;DHT22;5263;48.680;9.004;2023-09-19T11:53:57;26.20;90.80
10433;DHT22;5263;48.680;9.004;2023-09-19T11:56:26;23.90;93.90
10433;DHT22;5263;48.680;9.004;2023-09-19T11:58:57;25.00;94.70
10433;DHT22;5263;48.680;9.004;2023-09-19T12:01:31;26.50;93.00
10433;DHT22;5263;48.680;9.004;2023-09-19T12:03:59;28.20;90.00
10433;DHT22;5263;48.680;9.004;2023-09-19T12:06:29;27.80;87.70
10433;DHT22;5263;48.680;9.004;2023-09-19T12:08:55;28.20;88.00
10433;DHT22;5263;48.680;9.004;2023-09-19T12:11:23;28.70;86.70
10433;DHT22;5263;48.680;9.004;2023-09-19T12:13:50;29.70;83.10
10433;DHT22;5263;48.680;9.004;2023-09-19T12:16:20;30.50;80.60
10433;DHT22;5263;48.680;9.004;2023-09-19T12:18:50;27.70;85.20
10433;DHT22;5263;48.680;9.004;2023-09-19T12:21:27;29.40;83.80
10433;DHT22;5263;48.680;9.004;2023-09-19T12:26:26;26.10;90.60
10433;DHT22;5263;48.680;9.004;2023-09-19T12:28:54;26.40;89.30
10433;DHT22;5263;48.680;9.004;2023-09-19T12:31:20;28.30;86.80
10433;DHT22;5263;48.680;9.004;2023-09-19T12:33:46;29.70;83.70
10433;DHT22;5263;48.680;9.004;2023-09-19T12:36:21;31.90;77.50
10433;DHT22;5263;48.680;9.004;2023-09-19T12:38:54;30.30;77.50
10433;DHT22;5263;48.680;9.004;2023-09-19T12:41:20;29.00;80.10
10433;DHT22;5263;48.680;9.004;2023-09-19T12:43:47;29.30;80.70
10433;DHT22;5263;48.680;9.004;2023-09-19T12:46:13;30.00;79.80
10433;DHT22;5263;48.680;9.004;2023-09-19T12:48:40;30.20;78.30
10433;DHT22;5263;48.680;9.004;2023-09-19T12:51:10;30.90;76.50
10433;DHT22;5263;48.680;9.004;2023-09-19T12:53:42;29.10;78.70
10433;DHT22;5263;48.680;9.004;2023-09-19T12:56:10;30.10;80.40
10433;DHT22;5263;48.680;9.004;2023-09-19T12:58:53;31.00;76.80
10433;DHT22;5263;48.680;9.004;2023-09-19T13:01:26;31.80;75.60
10433;DHT22;5263;48.680;9.004;2023-09-19T13:04:17;30.90;74.60
10433;DHT22;5263;48.680;9.004;2023-09-19T13:06:52;31.80;74.00
10433;DHT22;5263;48.680;9.004;2023-09-19T13:09:19;32.90;72.10
10433;DHT22;5263;48.680;9.004;2023-09-19T13:11:46;32.30;70.80
10433;DHT22;5263;48.680;9.004;2023-09-19T13:14:28;32.20;70.00
10433;DHT22;5263;48.680;9.004;2023-09-19T13:17:08;29.60;72.10
10433;DHT22;5263;48.680;9.004;2023-09-19T13:19:52;30.20;74.50
10433;DHT22;5263;48.680;9.004;2023-09-19T13:22:41;29.40;73.30
10433;DHT22;5263;48.680;9.004;2023-09-19T13:25:14;28.30;79.30
10433;DHT22;5263;48.680;9.004;2023-09-19T13:27:45;27.40;78.40
10433;DHT22;5263;48.680;9.004;2023-09-19T13:30:12;26.60;80.90
10433;DHT22;5263;48.680;9.004;2023-09-19T13:32:37;25.90;83.90
10433;DHT22;5263;48.680;9.004;2023-09-19T13:35:06;25.90;84.30
10433;DHT22;5263;48.680;9.004;2023-09-19T13:37:34;26.00;83.10
10433;DHT22;5263;48.680;9.004;2023-09-19T13:40:03;25.30;84.90
10433;DHT22;5263;48.680;9.004;2023-09-19T13:42:30;25.00;87.60
10433;DHT22;5263;48.680;9.004;2023-09-19T13:44:57;26.10;87.20
10433;DHT22;5263;48.680;9.004;2023-09-19T13:47:22;25.10;86.40
10433;DHT22;5263;48.680;9.004;2023-09-19T13:49:50;24.80;88.00
10433;DHT22;5263;48.680;9.004;2023-09-19T13:52:19;24.90;88.70
10433;DHT22;5263;48.680;9.004;2023-09-19T13:54:44;24.60;89.60
10433;DHT22;5263;48.680;9.004;2023-09-19T13:57:10;24.60;90.10
10433;DHT22;5263;48.680;9.004;2023-09-19T13:59:35;24.50;88.90
10433;DHT22;5263;48.680;9.004;2023-09-19T14:02:01;24.50;90.70
10433;DHT22;5263;48.680;9.004;2023-09-19T14:04:31;23.70;91.00
10433;DHT22;5263;48.680;9.004;2023-09-19T14:06:57;24.00;89.70
10433;DHT22;5263;48.680;9.004;2023-09-19T14:09:23;24.10;87.70
10433;DHT22;5263;48.680;9.004;2023-09-19T14:11:50;24.10;89.90
10433;DHT22;5263;48.680;9.004;2023-09-19T14:14:18;24.40;89.80
10433;DHT22;5263;48.680;9.004;2023-09-19T14:16:44;24.60;88.60
10433;DHT22;5263;48.680;9.004;2023-09-19T14:19:09;24.40;88.80
10433;DHT22;5263;48.680;9.004;2023-09-19T14:21:35;24.00;89.00
10433;DHT22;5263;48.680;9.004;2023-09-19T14:24:02;23.60;89.50
10433;DHT22;5263;48.680;9.004;2023-09-19T14:26:28;23.50;90.80
10433;DHT22;5263;48.680;9.004;2023-09-19T14:28:54;23.60;90.00
10433;DHT22;5263;48.680;9.004;2023-09-19T14:31:20;24.00;90.30
10433;DHT22;5263;48.680;9.004;2023-09-19T14:33:52;24.10;89.00
10433;DHT22;5263;48.680;9.004;2023-09-19T14:36:18;24.20;88.70
10433;DHT22;5263;48.680;9.004;2023-09-19T14:38:44;23.70;88.10
10433;DHT22;5263;48.680;9.004;2023-09-19T14:41:10;23.50;88.80
10433;DHT22;5263;48.680;9.004;2023-09-19T14:43:35;24.40;89.60
10433;DHT22;5263;48.680;9.004;2023-09-19T14:46:04;24.50;87.10
10433;DHT22;5263;48.680;9.004;2023-09-19T14:48:30;24.20;88.30
10433;DHT22;5263;48.680;9.004;2023-09-19T14:51:04;23.70;88.60
10433;DHT22;5263;48.680;9.004;2023-09-19T14:53:33;23.20;88.90
10433;DHT22;5263;48.680;9.004;2023-09-19T14:56:03;23.30;89.90
10433;DHT22;5263;48.680;9.004;2023-09-19T14:58:29;23.20;90.60
10433;DHT22;5263;48.680;9.004;2023-09-19T15:01:05;23.20;90.70
10433;DHT22;5263;48.680;9.004;2023-09-19T15:03:32;23.40;90.00
10433;DHT22;5263;48.680;9.004;2023-09-19T15:06:06;23.20;90.10
10433;DHT22;5263;48.680;9.004;2023-09-19T15:08:32;23.30;90.40
10433;DHT22;5263;48.680;9.004;2023-09-19T15:11:00;23.40;90.40
10433;DHT22;5263;48.680;9.004;2023-09-19T15:13:32;23.10;90.00
10433;DHT22;5263;48.680;9.004;2023-09-19T15:16:06;23.20;90.60
10433;DHT22;5263;48.680;9.004;2023-09-19T15:18:35;23.50;89.50
10433;DHT22;5263;48.680;9.004;2023-09-19T15:21:03;23.30;90.20
10433;DHT22;5263;48.680;9.004;2023-09-19T15:23:33;23.40;90.20
10433;DHT22;5263;48.680;9.004;2023-09-19T15:26:00;23.30;90.00
10433;DHT22;5263;48.680;9.004;2023-09-19T15:28:27;23.20;90.50
10433;DHT22;5263;48.680;9.004;2023-09-19T15:31:01;22.70;90.20
10433;DHT22;5263;48.680;9.004;2023-09-19T15:33:27;22.70;90.90
10433;DHT22;5263;48.680;9.004;2023-09-19T15:36:04;22.30;91.40
10433;DHT22;5263;48.680;9.004;2023-09-19T15:38:30;22.30;91.40
10433;DHT22;5263;48.680;9.004;2023-09-19T15:40:57;22.40;91.50
10433;DHT22;5263;48.680;9.004;2023-09-19T15:43:23;22.00;91.60
10433;DHT22;5263;48.680;9.004;2023-09-19T15:45:49;21.90;92.00
10433;DHT22;5263;48.680;9.004;2023-09-19T15:48:15;22.10;91.90
10433;DHT22;5263;48.680;9.004;2023-09-19T15:50:42;22.20;92.30
10433;DHT22;5263;48.680;9.004;2023-09-19T15:53:10;22.20;91.90
10433;DHT22;5263;48.680;9.004;2023-09-19T15:55:40;22.20;92.10
10433;DHT22;5263;48.680;9.004;2023-09-19T15:58:07;22.20;92.00
10433;DHT22;5263;48.680;9.004;2023-09-19T16:00:32;22.20;91.90
10433;DHT22;5263;48.680;9.004;2023-09-19T16:03:02;21.90;92.20
10433;DHT22;5263;48.680;9.004;2023-09-19T16:05:28;21.80;92.70
10433;DHT22;5263;48.680;9.004;2023-09-19T16:07:53;21.80;93.00
10433;DHT22;5263;48.680;9.004;2023-09-19T16:10:19;21.90;93.20
10433;DHT22;5263;48.680;9.004;2023-09-19T16:12:46;21.50;92.90
10433;DHT22;5263;48.680;9.004;2023-09-19T16:15:11;21.30;93.80
10433;DHT22;5263;48.680;9.004;2023-09-19T16:17:37;21.10;94.00
10433;DHT22;5263;48.680;9.004;2023-09-19T16:20:03;21.20;94.60
10433;DHT22;5263;48.680;9.004;2023-09-19T16:22:29;21.00;94.40
10433;DHT22;5263;48.680;9.004;2023-09-19T16:24:55;20.90;95.20
10433;DHT22;5263;48.680;9.004;2023-09-19T16:27:21;20.90;95.00
10433;DHT22;5263;48.680;9.004;2023-09-19T16:29:47;20.90;94.90
10433;DHT22;5263;48.680;9.004;2023-09-19T16:32:14;20.80;95.40
10433;DHT22;5263;48.680;9.004;2023-09-19T16:34:40;20.60;96.00
10433;DHT22;5263;48.680;9.004;2023-09-19T16:37:06;20.40;96.10
10433;DHT22;5263;48.680;9.004;2023-09-19T16:39:32;20.30;96.40